Time;durP1;ratioP1;P1;durP2;ratioP2;P2;SDS_P1;SDS_P2;PMS_P1;PMS_P2;Temp;Humidity;BMP_temperature;BMP_pressure;BME280_temperature;BME280_humidity;BME280_pressure;Samples;Min_cycle;Max_cycle;Signal;HPM_P1;HPM_P2
2022/12/28 00:01:19;;;;;;;17.77;4.95;;;7.60;95.40;;;;;;5060396;28;20382;-73
2022/12/28 00:03:45;;;;;;;9.75;3.97;;;7.60;95.50;;;;;;5040640;28;20103;-74
2022/12/28 00:06:11;;;;;;;10.50;3.55;;;7.70;95.50;;;;;;5046885;28;20021;-74
2022/12/28 00:08:37;;;;;;;10.00;4.22;;;7.70;95.50;;;;;;5038439;28;20906;-74
2022/12/28 00:11:05;;;;;;;13.77;4.00;;;7.70;95.50;;;;;;5039847;28;20029;-73
2022/12/28 00:13:32;;;;;;;13.82;4.57;;;7.70;95.60;;;;;;5038070;28;20044;-74
2022/12/28 00:16:04;;;;;;;9.32;3.88;;;7.70;95.60;;;;;;5032782;28;20021;-73
2022/12/28 00:18:33;;;;;;;14.57;4.75;;;7.70;95.60;;;;;;5033141;28;20120;-74
2022/12/28 00:20:59;;;;;;;16.50;5.78;;;7.70;95.60;;;;;;5026706;28;20574;-73
2022/12/28 00:23:26;;;;;;;15.88;4.97;;;7.60;95.50;;;;;;5053736;28;20087;-73
2022/12/28 00:25:52;;;;;;;14.38;4.78;;;7.70;95.60;;;;;;5047039;28;20099;-74
2022/12/28 00:28:19;;;;;;;7.18;3.40;;;7.70;95.60;;;;;;5050919;28;20073;-74
2022/12/28 00:30:46;;;;;;;11.25;3.47;;;7.70;95.60;;;;;;5046608;28;20078;-74
2022/12/28 00:33:12;;;;;;;15.18;4.05;;;7.70;95.60;;;;;;5042028;28;20068;-74
2022/12/28 00:35:38;;;;;;;8.10;3.58;;;7.70;95.70;;;;;;5044810;28;20020;-73
2022/12/28 00:38:03;;;;;;;11.82;4.43;;;7.70;95.50;;;;;;5055057;28;20472;-74
2022/12/28 00:40:29;;;;;;;9.70;3.22;;;7.70;95.50;;;;;;5024707;28;20040;-74
2022/12/28 00:42:55;;;;;;;8.50;3.70;;;7.70;95.60;;;;;;5044082;28;20029;-73
2022/12/28 00:45:20;;;;;;;12.55;4.13;;;7.70;95.50;;;;;;5030501;28;20484;-74
2022/12/28 00:47:46;;;;;;;15.45;4.07;;;7.70;95.50;;;;;;5061379;28;20495;-74
2022/12/28 00:50:11;;;;;;;13.13;4.53;;;7.70;95.50;;;;;;5046998;28;20468;-74
2022/12/28 00:52:37;;;;;;;13.18;4.53;;;7.70;95.40;;;;;;5053781;28;20032;-74
2022/12/28 00:55:03;;;;;;;7.13;3.90;;;7.80;95.40;;;;;;5027871;28;20025;-74
2022/12/28 00:57:30;;;;;;;12.45;3.67;;;7.80;95.30;;;;;;5047414;28;20026;-74
2022/12/28 00:59:55;;;;;;;5.82;2.25;;;7.90;95.40;;;;;;5045536;28;20036;-75
2022/12/28 01:02:22;;;;;;;8.52;3.80;;;7.80;95.30;;;;;;5044989;28;20018;-75
2022/12/28 01:04:48;;;;;;;9.15;4.22;;;7.80;95.20;;;;;;5054164;28;20388;-73
2022/12/28 01:07:14;;;;;;;11.73;3.28;;;7.80;95.30;;;;;;5041381;28;20040;-74
2022/12/28 01:09:39;;;;;;;8.40;3.63;;;7.80;95.20;;;;;;5024759;28;20017;-74
2022/12/28 01:12:05;;;;;;;8.77;3.13;;;7.80;95.20;;;;;;5039705;28;20028;-74
2022/12/28 01:14:31;;;;;;;7.50;3.53;;;7.90;95.20;;;;;;5047104;28;20034;-73
2022/12/28 01:16:56;;;;;;;6.03;2.50;;;7.90;95.10;;;;;;5047054;28;20040;-75
2022/12/28 01:19:23;;;;;;;10.65;3.92;;;7.90;95.10;;;;;;5049862;28;20150;-73
2022/12/28 01:21:50;;;;;;;11.27;3.95;;;7.90;95.00;;;;;;5037562;28;20021;-73
2022/12/28 01:24:16;;;;;;;9.23;3.75;;;7.90;95.00;;;;;;5053443;28;20043;-74
2022/12/28 01:26:41;;;;;;;9.10;4.28;;;8.00;95.00;;;;;;5031955;28;20041;-73
2022/12/28 01:29:07;;;;;;;7.50;2.53;;;8.00;95.00;;;;;;5051933;28;20028;-73
2022/12/28 01:31:33;;;;;;;8.65;3.92;;;8.00;95.00;;;;;;5033077;28;20029;-73
2022/12/28 01:33:59;;;;;;;10.55;3.97;;;7.90;95.00;;;;;;5058781;28;20082;-74
2022/12/28 01:36:27;;;;;;;8.88;3.47;;;8.00;95.00;;;;;;5034051;28;20021;-74
2022/12/28 01:39:00;;;;;;;11.45;4.75;;;8.00;95.10;;;;;;5038902;28;20107;-73
2022/12/28 01:41:27;;;;;;;8.43;3.75;;;8.00;95.00;;;;;;5034921;28;20029;-74
2022/12/28 01:43:53;;;;;;;6.95;3.60;;;8.10;94.90;;;;;;5044924;28;20036;-74
2022/12/28 01:46:23;;;;;;;11.68;4.30;;;8.00;94.90;;;;;;5036890;28;20026;-74
2022/12/28 01:48:48;;;;;;;;;;;8.00;95.00;;;;;;5053186;28;20040;-73
2022/12/28 01:51:15;;;;;;;13.38;4.18;;;8.00;95.00;;;;;;5042126;28;19908;-73
2022/12/28 01:53:41;;;;;;;7.82;4.53;;;8.00;95.00;;;;;;5047575;28;20116;-73
2022/12/28 01:56:07;;;;;;;13.55;4.43;;;7.90;95.20;;;;;;5047613;28;20095;-75
2022/12/28 01:58:34;;;;;;;9.75;3.83;;;8.00;95.10;;;;;;5037123;28;20052;-74
2022/12/28 02:01:00;;;;;;;8.07;4.07;;;8.00;95.10;;;;;;5052127;28;20021;-74
2022/12/28 02:03:28;;;;;;;12.07;4.60;;;8.10;95.00;;;;;;5037038;28;20027;-75
2022/12/28 02:05:57;;;;;;;10.25;4.80;;;8.10;95.00;;;;;;5038052;28;20424;-73
2022/12/28 02:08:53;;;;;;;12.13;4.80;;;8.20;95.00;;;;;;5038099;28;20122;-73
2022/12/28 02:11:19;;;;;;;9.05;4.32;;;8.20;94.90;;;;;;5029389;28;20029;-73
2022/12/28 02:13:50;;;;;;;11.18;3.75;;;8.20;94.80;;;;;;5044314;28;20055;-73
2022/12/28 02:16:19;;;;;;;7.60;4.53;;;8.30;94.80;;;;;;5017417;28;20514;-75
2022/12/28 02:18:46;;;;;;;7.07;4.38;;;8.30;94.80;;;;;;5040063;28;20037;-74
2022/12/28 02:21:41;;;;;;;9.55;4.38;;;8.30;94.90;;;;;;5051176;28;20029;-74
2022/12/28 02:24:25;;;;;;;8.40;3.95;;;8.40;94.70;;;;;;5035192;28;20097;-74
2022/12/28 02:27:12;;;;;;;10.90;4.93;;;8.30;94.80;;;;;;5038500;28;20083;-75
2022/12/28 02:29:59;;;;;;;8.00;3.75;;;8.30;94.90;;;;;;5042537;28;20026;-73
2022/12/28 02:32:34;;;;;;;9.80;4.45;;;8.30;95.00;;;;;;5025861;28;20033;-74
2022/12/28 02:35:09;;;;;;;9.90;4.65;;;8.30;95.10;;;;;;5052018;28;20059;-73
2022/12/28 02:37:48;;;;;;;7.93;3.35;;;8.20;95.20;;;;;;5061814;28;20027;-73
2022/12/28 02:40:20;;;;;;;8.50;4.57;;;8.30;95.20;;;;;;5038496;28;20651;-74
2022/12/28 02:42:47;;;;;;;10.05;4.32;;;8.30;95.30;;;;;;5049655;28;20389;-74
2022/12/28 02:51:42;;;;;;;9.95;4.60;;;8.40;95.40;;;;;;5039055;28;20048;-75
2022/12/28 02:57:43;;;;;;;12.38;4.82;;;8.20;96.40;;;;;;5057254;28;20502;-72
2022/12/28 03:00:13;;;;;;;9.50;4.78;;;8.20;96.40;;;;;;5040083;28;20510;-74
2022/12/28 03:02:39;;;;;;;12.40;4.90;;;8.20;96.50;;;;;;5066001;28;20047;-74
2022/12/28 03:08:38;;;;;;;10.13;5.00;;;8.20;96.70;;;;;;5018645;28;20049;-73
2022/12/28 03:11:09;;;;;;;9.73;5.20;;;8.10;97.00;;;;;;5047546;28;20041;-74
2022/12/28 03:13:45;;;;;;;16.67;6.68;;;8.10;97.30;;;;;;5039156;28;20435;-74
2022/12/28 03:25:41;;;;;;;10.68;5.97;;;8.10;97.30;;;;;;5040761;28;20017;-74
2022/12/28 03:33:22;;;;;;;9.63;6.50;;;8.00;98.00;;;;;;5023395;28;20043;-74
2022/12/28 03:36:08;;;;;;;12.43;7.18;;;8.10;98.10;;;;;;5045316;28;20029;-74
2022/12/28 03:38:57;;;;;;;14.27;5.82;;;8.10;98.10;;;;;;5045535;28;20079;-74
2022/12/28 03:41:36;;;;;;;8.05;4.75;;;8.20;98.00;;;;;;5042958;28;20044;-73
2022/12/28 03:44:22;;;;;;;8.75;4.50;;;8.20;97.80;;;;;;5052987;28;20571;-74
2022/12/28 03:47:08;;;;;;;9.85;5.75;;;8.20;97.90;;;;;;5045504;28;20086;-73
2022/12/28 03:49:34;;;;;;;11.48;6.20;;;8.10;98.00;;;;;;5038740;28;20034;-72
2022/12/28 03:52:00;;;;;;;9.45;5.45;;;8.20;98.00;;;;;;5042821;28;20017;-73
2022/12/28 03:54:26;;;;;;;15.10;6.88;;;8.20;98.10;;;;;;5056640;28;20026;-73
2022/12/28 03:56:52;;;;;;;9.77;5.60;;;8.20;98.30;;;;;;5030860;28;20068;-74
2022/12/28 03:59:18;;;;;;;13.50;6.82;;;8.20;98.40;;;;;;5063417;28;20573;-72
2022/12/28 04:01:44;;;;;;;12.35;6.32;;;8.20;98.50;;;;;;5040214;28;20033;-73
2022/12/28 04:04:10;;;;;;;10.60;6.60;;;8.30;98.30;;;;;;5060649;28;20030;-74
2022/12/28 04:06:36;;;;;;;9.52;6.40;;;8.30;98.40;;;;;;5041413;28;20047;-72
2022/12/28 04:09:03;;;;;;;10.65;6.80;;;8.40;98.30;;;;;;5051792;28;20041;-73
2022/12/28 04:11:29;;;;;;;9.18;5.90;;;8.30;98.50;;;;;;5056043;28;20028;-73
2022/12/28 04:13:54;;;;;;;9.82;6.28;;;8.30;98.70;;;;;;5052437;28;20029;-74
2022/12/28 04:16:20;;;;;;;10.70;7.07;;;8.30;98.80;;;;;;5045608;28;20075;-74
2022/12/28 04:18:46;;;;;;;9.52;5.28;;;8.40;98.90;;;;;;5042476;28;20021;-73
2022/12/28 04:21:13;;;;;;;12.85;8.10;;;8.40;98.50;;;;;;5036343;28;20064;-74
2022/12/28 04:23:39;;;;;;;12.52;8.05;;;8.30;99.00;;;;;;5041869;28;20020;-74
2022/12/28 04:26:10;;;;;;;12.45;7.38;;;8.30;99.30;;;;;;5045927;28;20167;-72
2022/12/28 04:28:37;;;;;;;14.70;9.23;;;8.40;99.30;;;;;;5043244;28;20029;-73
2022/12/28 04:31:03;;;;;;;15.80;9.27;;;8.30;99.40;;;;;;5063705;28;20032;-72
2022/12/28 04:33:32;;;;;;;12.60;7.72;;;8.30;99.50;;;;;;5038142;28;20025;-74
2022/12/28 04:36:08;;;;;;;10.70;6.60;;;8.30;99.40;;;;;;5026742;28;20467;-74
2022/12/28 04:38:35;;;;;;;11.65;8.65;;;8.30;99.50;;;;;;5035219;28;20025;-73
2022/12/28 04:41:02;;;;;;;12.82;8.63;;;8.30;99.80;;;;;;5031300;28;20368;-74
2022/12/28 04:43:29;;;;;;;13.38;8.93;;;8.30;99.80;;;;;;5043188;28;20025;-73
2022/12/28 04:46:00;;;;;;;12.05;7.82;;;8.40;99.80;;;;;;5047226;28;20028;-73
2022/12/28 04:48:27;;;;;;;13.02;7.60;;;8.40;99.90;;;;;;5029215;28;20136;-74
2022/12/28 04:50:53;;;;;;;13.25;7.95;;;8.50;99.60;;;;;;5055227;28;20064;-73
2022/12/28 04:53:19;;;;;;;11.10;7.20;;;8.50;99.60;;;;;;5028283;28;20404;-74
2022/12/28 04:55:45;;;;;;;13.90;9.18;;;8.50;99.50;;;;;;5052544;28;20021;-73
2022/12/28 04:58:11;;;;;;;13.80;8.48;;;8.50;99.70;;;;;;5051472;28;20036;-74
2022/12/28 05:00:37;;;;;;;10.23;7.88;;;8.50;99.90;;;;;;5050624;28;20033;-73
2022/12/28 05:03:02;;;;;;;13.88;9.02;;;8.50;99.90;;;;;;5046916;28;20087;-73
2022/12/28 05:05:29;;;;;;;16.17;10.35;;;8.50;99.90;;;;;;5047283;28;20107;-74
2022/12/28 05:07:58;;;;;;;18.42;10.35;;;8.60;99.90;;;;;;5034379;28;20121;-74
2022/12/28 05:10:28;;;;;;;16.50;9.90;;;8.60;99.90;;;;;;5049681;28;20091;-74
2022/12/28 05:12:54;;;;;;;11.98;8.57;;;8.60;99.90;;;;;;5031492;28;21704;-75
2022/12/28 05:15:21;;;;;;;18.48;10.90;;;8.60;99.90;;;;;;5040803;28;20505;-75
2022/12/28 05:17:46;;;;;;;18.83;11.13;;;8.60;99.90;;;;;;5045715;28;20318;-74
2022/12/28 05:20:12;;;;;;;12.45;7.50;;;8.60;99.90;;;;;;5049371;28;20017;-75
2022/12/28 05:22:38;;;;;;;15.90;9.65;;;8.60;99.90;;;;;;5055018;28;20021;-74
2022/12/28 05:25:03;;;;;;;12.25;9.35;;;8.70;99.90;;;;;;5043520;28;20140;-74
2022/12/28 05:27:29;;;;;;;15.23;9.55;;;8.60;99.90;;;;;;5047406;28;20033;-75
2022/12/28 05:29:55;;;;;;;16.45;9.82;;;8.70;99.90;;;;;;5029946;28;20363;-74
2022/12/28 05:32:20;;;;;;;12.65;8.68;;;8.70;99.90;;;;;;5049805;28;20107;-74
2022/12/28 05:34:46;;;;;;;14.85;9.32;;;8.70;99.90;;;;;;5025243;28;20106;-72
2022/12/28 05:37:11;;;;;;;16.58;9.18;;;8.80;99.70;;;;;;5042625;28;20088;-73
2022/12/28 05:39:37;;;;;;;12.52;8.40;;;8.70;99.80;;;;;;5035119;28;20021;-73
2022/12/28 05:42:03;;;;;;;15.30;9.75;;;8.80;99.90;;;;;;5023310;28;20464;-75
2022/12/28 05:44:30;;;;;;;11.77;8.55;;;8.80;99.90;;;;;;5053296;28;20566;-74
2022/12/28 05:46:55;;;;;;;13.90;8.18;;;8.80;99.90;;;;;;5037032;28;20087;-73
2022/12/28 05:49:21;;;;;;;13.38;8.45;;;8.80;99.90;;;;;;5030883;28;20029;-75
2022/12/28 05:51:50;;;;;;;12.95;9.02;;;8.80;99.90;;;;;;5042204;28;20025;-73
2022/12/28 05:54:16;;;;;;;11.65;8.15;;;8.90;99.90;;;;;;5030383;28;20109;-73
2022/12/28 05:56:42;;;;;;;13.35;8.85;;;8.90;99.50;;;;;;5034593;28;20170;-73
2022/12/28 05:59:08;;;;;;;11.40;7.65;;;8.90;99.80;;;;;;5035227;28;20550;-74
2022/12/28 06:01:36;;;;;;;8.80;6.13;;;8.90;99.90;;;;;;5041494;28;20036;-74
2022/12/28 06:04:04;;;;;;;12.88;8.73;;;8.90;99.90;;;;;;5059646;28;20024;-74
2022/12/28 06:06:32;;;;;;;8.60;5.03;;;9.00;99.80;;;;;;5025850;28;20644;-74
2022/12/28 06:08:59;;;;;;;11.40;6.68;;;9.10;99.10;;;;;;5041499;28;20043;-74
2022/12/28 06:11:27;;;;;;;11.77;8.20;;;9.00;99.30;;;;;;5031903;28;20036;-73
2022/12/28 06:13:53;;;;;;;6.93;4.00;;;9.00;99.70;;;;;;5032100;28;20123;-73
2022/12/28 06:16:22;;;;;;;10.70;6.82;;;9.10;99.50;;;;;;5029760;28;20274;-74
2022/12/28 06:18:48;;;;;;;11.27;7.70;;;9.00;99.50;;;;;;5040109;28;20033;-74
2022/12/28 06:21:17;;;;;;;11.88;8.73;;;9.10;99.90;;;;;;5036262;28;20108;-73
2022/12/28 06:23:44;;;;;;;10.97;8.27;;;9.10;99.90;;;;;;5048896;28;20032;-73
2022/12/28 06:26:12;;;;;;;7.93;5.47;;;9.10;99.90;;;;;;5035575;28;20104;-74
2022/12/28 06:28:39;;;;;;;10.93;7.00;;;9.20;99.60;;;;;;5047406;28;20040;-74
2022/12/28 06:31:26;;;;;;;13.63;6.25;;;9.10;99.90;;;;;;5039823;28;20051;-73
2022/12/28 06:33:54;;;;;;;11.27;6.43;;;9.10;99.80;;;;;;5034053;28;20017;-73
2022/12/28 06:36:23;;;;;;;10.10;5.93;;;9.10;99.90;;;;;;5012571;28;20025;-74
2022/12/28 06:38:51;;;;;;;9.85;6.15;;;9.10;99.90;;;;;;5061064;28;20058;-73
2022/12/28 06:41:18;;;;;;;9.65;5.88;;;9.20;99.50;;;;;;5061262;28;20131;-73
2022/12/28 06:43:45;;;;;;;11.52;6.88;;;9.20;99.80;;;;;;5054654;28;20107;-75
2022/12/28 06:46:12;;;;;;;9.70;5.43;;;9.20;99.90;;;;;;5048182;28;20033;-74
2022/12/28 06:48:38;;;;;;;9.85;5.05;;;9.20;99.90;;;;;;5033716;28;20029;-75
2022/12/28 06:51:06;;;;;;;11.90;6.93;;;9.30;99.70;;;;;;5029063;28;20021;-73
2022/12/28 06:53:35;;;;;;;9.40;5.13;;;9.30;99.60;;;;;;5040832;28;20037;-73
2022/12/28 06:56:04;;;;;;;8.02;5.18;;;9.30;99.80;;;;;;5040068;28;20017;-74
2022/12/28 06:58:30;;;;;;;8.20;5.60;;;9.20;99.90;;;;;;5043412;28;20144;-74
2022/12/28 07:01:03;;;;;;;11.55;7.22;;;9.30;99.90;;;;;;5044675;28;20526;-73
2022/12/28 07:03:29;;;;;;;12.68;6.82;;;9.40;99.60;;;;;;5042534;28;20399;-73
2022/12/28 07:06:00;;;;;;;15.30;7.57;;;9.30;99.80;;;;;;5041899;28;20021;-74
2022/12/28 07:08:26;;;;;;;8.18;5.47;;;9.40;99.80;;;;;;5040486;28;20127;-74
2022/12/28 07:10:52;;;;;;;9.85;5.38;;;9.40;99.80;;;;;;5045681;28;20013;-74
2022/12/28 07:13:18;;;;;;;7.30;4.22;;;9.40;99.40;;;;;;5036995;28;20299;-72
2022/12/28 07:15:44;;;;;;;9.98;6.05;;;9.40;99.40;;;;;;5046240;28;20023;-75
2022/12/28 07:18:10;;;;;;;10.05;6.68;;;9.50;99.10;;;;;;5038390;28;20020;-73
2022/12/28 07:20:36;;;;;;;8.70;4.75;;;9.50;99.90;;;;;;5043576;28;20018;-73
2022/12/28 07:23:02;;;;;;;8.93;6.80;;;9.50;99.50;;;;;;5038437;28;20017;-74
2022/12/28 07:25:27;;;;;;;10.00;6.18;;;9.50;99.60;;;;;;5041760;28;20083;-73
2022/12/28 07:27:53;;;;;;;12.75;6.78;;;9.50;99.50;;;;;;5037236;28;20088;-76
2022/12/28 07:30:19;;;;;;;9.15;6.18;;;9.60;99.40;;;;;;5021934;28;20062;-74
2022/12/28 07:32:44;;;;;;;10.48;6.57;;;9.50;99.60;;;;;;5033782;28;20025;-74
2022/12/28 07:35:10;;;;;;;8.07;6.00;;;9.60;99.70;;;;;;5040046;28;20009;-74
2022/12/28 07:37:36;;;;;;;11.95;6.75;;;9.50;99.90;;;;;;5040236;28;20030;-74
2022/12/28 07:40:01;;;;;;;11.02;6.63;;;9.50;99.90;;;;;;5039973;28;20099;-74
2022/12/28 07:42:30;;;;;;;7.15;4.30;;;9.60;99.70;;;;;;5035468;28;20060;-74
2022/12/28 07:44:56;;;;;;;8.02;4.88;;;9.60;99.50;;;;;;5043942;28;20046;-73
2022/12/28 07:47:21;;;;;;;8.13;5.72;;;9.60;99.60;;;;;;5046105;28;20506;-74
2022/12/28 07:49:47;;;;;;;10.10;5.93;;;9.60;99.60;;;;;;5041649;28;20380;-74
2022/12/28 07:52:13;;;;;;;9.13;6.50;;;9.60;99.90;;;;;;5046016;28;20415;-74
2022/12/28 07:54:38;;;;;;;10.43;5.50;;;9.50;99.90;;;;;;5040591;28;20029;-74
2022/12/28 07:57:04;;;;;;;11.60;6.00;;;9.50;99.90;;;;;;5039873;28;20022;-73
2022/12/28 07:59:32;;;;;;;8.73;5.43;;;9.50;99.90;;;;;;5039255;28;20443;-73
2022/12/28 08:01:58;;;;;;;7.93;5.05;;;9.60;99.90;;;;;;5046307;28;20025;-75
2022/12/28 08:04:26;;;;;;;8.85;6.15;;;9.60;99.80;;;;;;5051995;28;20032;-74
2022/12/28 08:06:52;;;;;;;7.70;5.68;;;9.60;99.60;;;;;;5030610;28;20480;-74
2022/12/28 08:09:17;;;;;;;8.10;5.93;;;9.60;99.70;;;;;;5028593;28;20029;-76
2022/12/28 08:11:44;;;;;;;12.93;7.15;;;9.70;99.50;;;;;;5042618;28;20025;-74
2022/12/28 08:14:11;;;;;;;7.70;5.72;;;9.70;99.70;;;;;;5039291;28;20034;-76
2022/12/28 08:16:42;;;;;;;8.52;5.57;;;9.80;99.60;;;;;;5043015;28;20025;-74
2022/12/28 08:19:08;;;;;;;8.93;6.07;;;9.80;99.40;;;;;;5041518;28;21479;-74
2022/12/28 08:21:40;;;;;;;11.52;6.80;;;9.80;99.40;;;;;;5029539;28;20394;-75
2022/12/28 08:24:11;;;;;;;14.02;8.25;;;9.80;99.30;;;;;;5042839;28;20041;-72
2022/12/28 08:26:39;;;;;;;11.00;6.97;;;9.80;99.40;;;;;;5041991;28;20013;-74
2022/12/28 08:29:08;;;;;;;13.15;7.65;;;9.70;99.70;;;;;;5029335;28;20033;-73
2022/12/28 08:31:36;;;;;;;10.50;6.65;;;9.80;99.70;;;;;;5037527;28;20027;-73
2022/12/28 08:34:05;;;;;;;11.18;5.50;;;9.80;99.60;;;;;;5050832;28;20039;-73
2022/12/28 08:36:31;;;;;;;9.25;5.22;;;9.80;99.50;;;;;;5033622;28;20017;-74
2022/12/28 08:38:57;;;;;;;13.45;7.18;;;9.80;99.30;;;;;;5048607;28;20455;-74
2022/12/28 08:41:24;;;;;;;8.20;5.50;;;9.80;99.50;;;;;;5026107;28;20021;-73
2022/12/28 08:43:51;;;;;;;5.78;3.33;;;9.90;99.00;;;;;;5053662;28;20066;-74
2022/12/28 08:46:23;;;;;;;10.85;6.55;;;9.90;98.90;;;;;;5035752;28;20024;-74
2022/12/28 08:48:50;;;;;;;11.15;6.85;;;9.80;99.40;;;;;;5050836;28;20031;-74
2022/12/28 08:51:19;;;;;;;11.50;6.40;;;9.80;99.50;;;;;;5033914;28;20025;-74
2022/12/28 08:53:45;;;;;;;14.02;5.97;;;;;;;;;;5041232;28;20060;-73
2022/12/28 08:56:16;;;;;;;10.20;6.20;;;;;;;;;;5038921;28;20033;-74
2022/12/28 08:58:43;;;;;;;8.77;4.97;;;;;;;;;;5056742;28;20028;-73
2022/12/28 09:01:12;;;;;;;9.18;4.75;;;;;;;;;;5038613;28;20028;-74
2022/12/28 09:03:39;;;;;;;10.27;5.70;;;;;;;;;;5049645;28;20467;-74
2022/12/28 09:06:07;;;;;;;7.70;4.32;;;;;;;;;;5050476;28;20395;-73
2022/12/28 09:08:33;;;;;;;8.85;5.65;;;;;;;;;;5017050;28;20041;-72
2022/12/28 09:11:00;;;;;;;8.20;4.90;;;;;;;;;;5031728;28;20125;-72
2022/12/28 09:13:26;;;;;;;5.05;3.28;;;;;;;;;;5033982;28;20436;-73
2022/12/28 09:15:56;;;;;;;8.25;5.18;;;;;;;;;;5053804;28;20031;-73
2022/12/28 09:18:22;;;;;;;7.85;4.32;;;;;;;;;;5039724;28;20013;-73
2022/12/28 09:20:48;;;;;;;12.13;6.30;;;;;;;;;;5050484;28;20024;-74
2022/12/28 09:23:14;;;;;;;10.27;5.47;;;;;;;;;;5038504;28;20079;-74
2022/12/28 09:25:40;;;;;;;10.88;5.30;;;;;;;;;;5035576;28;20054;-74
2022/12/28 09:28:06;;;;;;;8.95;4.55;;;;;;;;;;5038245;28;20165;-73
2022/12/28 09:30:33;;;;;;;7.78;4.93;;;;;;;;;;5032304;28;20076;-73
2022/12/28 09:35:44;;;;;;;12.07;7.20;;;;;;;;;;5032917;28;20044;-72
2022/12/28 09:38:10;;;;;;;8.63;5.20;;;;;;;;;;5032598;28;20028;-73
2022/12/28 09:40:37;;;;;;;11.40;6.80;;;;;;;;;;5032148;28;20099;-72
2022/12/28 09:43:03;;;;;;;10.68;6.13;;;;;;;;;;5028382;28;20461;-72
2022/12/28 09:45:31;;;;;;;16.35;7.82;;;;;;;;;;5039659;28;20088;-72
2022/12/28 09:48:00;;;;;;;14.95;5.65;;;;;;;;;;5035090;28;20048;-73
2022/12/28 09:50:28;;;;;;;14.35;5.10;;;;;;;;;;5015737;28;20438;-75
2022/12/28 09:53:14;;;;;;;10.32;5.32;;;;;;;;;;5033051;28;20026;-75
2022/12/28 09:55:41;;;;;;;13.45;4.72;;;;;;;;;;5036271;28;20511;-74
2022/12/28 09:58:13;;;;;;;12.32;6.43;;;;;;;;;;5031426;28;20028;-72
2022/12/28 10:00:51;;;;;;;14.88;4.75;;;;;;;;;;5020897;28;20491;-76
2022/12/28 10:03:23;;;;;;;12.27;4.88;;;;;;;;;;5030025;28;20022;-73
2022/12/28 10:05:50;;;;;;;11.07;4.70;;;;;;;;;;5036910;28;20114;-74
2022/12/28 10:08:18;;;;;;;10.18;4.15;;;;;;;;;;5033731;28;20040;-78
2022/12/28 10:10:44;;;;;;;14.30;5.82;;;10.00;98.90;;;;;;5034821;28;20090;-76
2022/12/28 10:13:24;;;;;;;9.77;4.95;;;10.00;99.50;;;;;;5033297;28;20032;-77
2022/12/28 10:15:50;;;;;;;12.02;5.15;;;10.00;99.50;;;;;;5039642;28;20074;-76
2022/12/28 10:18:24;;;;;;;8.10;4.47;;;10.10;99.50;;;;;;5034725;28;20021;-75
2022/12/28 10:20:50;;;;;;;12.82;5.40;;;10.10;99.20;;;;;;5035556;28;20029;-76
2022/12/28 10:23:22;;;;;;;9.40;5.70;;;10.10;99.10;;;;;;5031762;28;20032;-75
2022/12/28 10:25:51;;;;;;;6.22;3.40;;;10.00;99.80;;;;;;5033220;28;20562;-75
2022/12/28 10:28:19;;;;;;;7.88;4.53;;;10.00;99.60;;;;;;5033373;28;20029;-76
2022/12/28 10:30:47;;;;;;;11.98;4.43;;;10.10;99.50;;;;;;5037105;28;20691;-75
2022/12/28 10:33:19;;;;;;;7.10;2.90;;;10.10;99.30;;;;;;5036344;28;20054;-74
2022/12/28 10:35:51;;;;;;;7.65;4.28;;;10.10;99.40;;;;;;5037488;28;20041;-75
2022/12/28 10:38:28;;;;;;;10.65;4.93;;;10.00;99.50;;;;;;5017675;28;20021;-75
2022/12/28 10:41:08;;;;;;;7.93;4.25;;;10.00;99.90;;;;;;5024185;28;20029;-75
2022/12/28 10:43:43;;;;;;;9.60;6.45;;;10.00;99.90;;;;;;5018440;28;20497;-76
2022/12/28 10:46:17;;;;;;;8.88;5.05;;;10.00;99.90;;;;;;5036931;28;20021;-75
2022/12/28 10:48:47;;;;;;;12.65;5.25;;;10.00;99.90;;;;;;5030738;28;20029;-74
2022/12/28 10:51:14;;;;;;;;;;;9.90;99.90;;;;;;5032280;28;20463;-75
2022/12/28 10:53:47;;;;;;;11.73;5.10;;;10.00;99.90;;;;;;5017887;28;20482;-74
2022/12/28 10:56:12;;;;;;;9.27;5.28;;;10.00;99.90;;;;;;5035593;28;20029;-73
2022/12/28 10:58:39;;;;;;;11.45;5.75;;;10.00;99.90;;;;;;5034392;28;20029;-74
2022/12/28 11:01:22;;;;;;;8.73;4.82;;;10.00;99.90;;;;;;5037888;28;20028;-74
2022/12/28 11:04:03;;;;;;;7.35;3.17;;;10.00;99.90;;;;;;5037572;28;20021;-74
2022/12/28 11:06:35;;;;;;;8.48;5.03;;;10.00;99.90;;;;;;5035929;28;20033;-75
2022/12/28 11:09:19;;;;;;;7.70;3.35;;;10.00;99.90;;;;;;5016097;28;20028;-73
2022/12/28 11:11:46;;;;;;;16.05;5.60;;;10.00;99.90;;;;;;5032957;28;20115;-74
2022/12/28 11:14:23;;;;;;;7.78;4.00;;;10.10;99.90;;;;;;5033858;28;20108;-75
2022/12/28 11:16:48;;;;;;;6.25;3.03;;;10.10;99.90;;;;;;5034602;28;20431;-74
2022/12/28 11:19:15;;;;;;;7.50;3.10;;;10.00;99.90;;;;;;5035044;28;20087;-74
2022/12/28 11:21:42;;;;;;;6.47;3.85;;;10.10;99.90;;;;;;5014391;28;20035;-75
2022/12/28 11:24:15;;;;;;;10.68;5.07;;;10.10;99.90;;;;;;5016034;28;20110;-74
2022/12/28 11:26:48;;;;;;;7.07;3.10;;;10.10;99.90;;;;;;5034898;28;20044;-73
2022/12/28 11:29:15;;;;;;;6.70;4.32;;;10.10;99.90;;;;;;5031328;28;20044;-74
2022/12/28 11:32:14;;;;;;;7.05;4.05;;;10.10;99.90;;;;;;5033325;28;20013;-74
2022/12/28 11:34:40;;;;;;;6.22;3.08;;;10.10;99.90;;;;;;5036560;28;20487;-74
2022/12/28 11:37:14;;;;;;;5.13;2.55;;;10.10;99.90;;;;;;5030393;28;20017;-74
2022/12/28 11:39:47;;;;;;;3.30;2.00;;;10.20;99.90;;;;;;5039195;28;20087;-73
2022/12/28 11:42:39;;;;;;;5.28;2.97;;;10.20;99.90;;;;;;5029923;28;20029;-74
2022/12/28 11:45:16;;;;;;;8.50;3.03;;;10.20;99.70;;;;;;4989103;28;20029;-76
2022/12/28 11:47:42;;;;;;;5.13;2.92;;;10.20;99.80;;;;;;5031391;28;20033;-77
2022/12/28 11:50:37;;;;;;;5.32;2.20;;;10.20;99.90;;;;;;5017895;28;20072;-74
2022/12/28 11:53:17;;;;;;;4.45;2.65;;;10.10;99.90;;;;;;5029219;28;21547;-77
2022/12/28 11:56:05;;;;;;;4.10;2.70;;;10.10;99.90;;;;;;5030803;28;20021;-78
2022/12/28 11:58:33;;;;;;;5.43;2.08;;;10.10;99.90;;;;;;5032510;28;20036;-76
2022/12/28 12:01:01;;;;;;;3.67;1.90;;;10.20;99.90;;;;;;5036236;28;20398;-77
2022/12/28 12:03:57;;;;;;;5.93;2.00;;;10.20;99.70;;;;;;5013985;28;20057;-77
2022/12/28 12:06:42;;;;;;;3.78;2.30;;;10.20;99.60;;;;;;5033828;28;20099;-75
2022/12/28 12:09:38;;;;;;;3.83;2.38;;;10.20;99.30;;;;;;5029789;28;20041;-76
2022/12/28 12:12:13;;;;;;;5.03;2.42;;;10.20;99.60;;;;;;5030955;28;20040;-75
2022/12/28 12:14:52;;;;;;;3.92;2.83;;;10.10;99.90;;;;;;5032209;28;20024;-76
2022/12/28 12:17:26;;;;;;;5.05;3.13;;;10.10;99.70;;;;;;5032508;28;20029;-76
2022/12/28 12:19:56;;;;;;;6.82;4.57;;;10.10;99.90;;;;;;5034779;28;20029;-77
2022/12/28 12:22:23;;;;;;;4.80;2.72;;;10.10;99.90;;;;;;5033310;28;20067;-75
2022/12/28 12:24:56;;;;;;;6.53;3.83;;;10.20;99.90;;;;;;5036842;28;20511;-77
2022/12/28 12:27:44;;;;;;;4.93;2.95;;;10.20;99.70;;;;;;5032344;28;20395;-76
2022/12/28 12:30:16;;;;;;;13.20;6.85;;;10.20;99.30;;;;;;5033088;28;20040;-75
2022/12/28 12:32:56;;;;;;;6.95;2.95;;;10.20;99.50;;;;;;5032652;28;20029;-75
2022/12/28 12:35:25;;;;;;;9.25;4.15;;;10.20;99.30;;;;;;5033224;28;20036;-76
2022/12/28 12:37:55;;;;;;;10.98;5.28;;;10.20;99.40;;;;;;5031500;28;20082;-76
2022/12/28 12:41:09;;;;;;;6.43;3.17;;;10.20;99.30;;;;;;5033263;28;20097;-73
2022/12/28 12:43:53;;;;;;;12.98;8.40;;;10.20;99.40;;;;;;5017540;28;20045;-76
2022/12/28 12:46:33;;;;;;;10.85;3.92;;;10.30;99.10;;;;;;5031928;28;20136;-77
2022/12/28 12:49:25;;;;;;;9.05;3.97;;;10.20;99.00;;;;;;5032921;28;20049;-75
2022/12/28 12:51:57;;;;;;;14.00;5.88;;;10.20;99.20;;;;;;5036919;28;20048;-77
2022/12/28 12:54:36;;;;;;;9.77;4.97;;;10.30;99.10;;;;;;5031666;28;20100;-75
2022/12/28 12:57:21;;;;;;;7.22;3.40;;;10.30;98.90;;;;;;5034158;28;20037;-77
2022/12/28 13:00:19;;;;;;;9.65;4.25;;;10.40;98.70;;;;;;5029146;28;20025;-77
2022/12/28 13:03:03;;;;;;;7.40;3.95;;;10.30;98.50;;;;;;5014154;28;20040;-77
2022/12/28 13:05:30;;;;;;;6.15;3.78;;;10.30;98.50;;;;;;5032897;28;20030;-77
2022/12/28 13:07:57;;;;;;;6.03;2.92;;;10.40;98.40;;;;;;5027151;28;20095;-76
2022/12/28 13:10:31;;;;;;;8.20;4.03;;;10.30;98.50;;;;;;5030910;28;20406;-77
2022/12/28 13:12:59;;;;;;;7.80;4.05;;;10.30;98.50;;;;;;5030352;28;20039;-77
2022/12/28 13:15:25;;;;;;;9.35;4.55;;;10.40;98.60;;;;;;5029364;28;20523;-76
2022/12/28 13:18:13;;;;;;;9.88;3.00;;;10.30;98.40;;;;;;5033001;28;20056;-77
2022/12/28 13:20:39;;;;;;;7.45;3.75;;;10.40;98.50;;;;;;5033735;28;20087;-76
2022/12/28 13:23:13;;;;;;;6.28;2.35;;;10.40;98.40;;;;;;5032399;28;20467;-76
2022/12/28 13:25:45;;;;;;;7.30;2.72;;;10.40;98.20;;;;;;5027609;28;20117;-78
2022/12/28 13:28:34;;;;;;;9.18;2.47;;;10.40;98.10;;;;;;5032341;28;20087;-75
2022/12/28 13:31:19;;;;;;;9.02;2.60;;;10.50;98.00;;;;;;5036145;28;20029;-77
2022/12/28 13:33:56;;;;;;;6.93;2.60;;;10.50;97.80;;;;;;5021634;28;20025;-76
2022/12/28 13:36:21;;;;;;;6.97;2.90;;;10.60;97.70;;;;;;5041970;28;20075;-77
2022/12/28 13:39:09;;;;;;;8.60;2.30;;;10.50;97.80;;;;;;5032692;28;20024;-77
2022/12/28 13:41:36;;;;;;;6.68;2.63;;;10.50;97.70;;;;;;5046583;28;20568;-77
2022/12/28 13:44:11;;;;;;;6.63;2.13;;;10.50;97.70;;;;;;5044662;28;20071;-76